createdAt,value
2023-05-22T00:01:10.842Z,16.50
2023-05-22T00:06:12.466Z,16.40
2023-05-22T00:11:14.165Z,16.30
2023-05-22T00:16:15.912Z,16.20
2023-05-22T00:21:17.866Z,16.00
2023-05-22T00:26:19.643Z,15.90
2023-05-22T00:31:21.626Z,15.70
2023-05-22T00:36:23.421Z,15.60
2023-05-22T00:41:25.018Z,15.50
2023-05-22T00:46:26.656Z,15.40
2023-05-22T00:51:28.361Z,15.30
2023-05-22T00:56:30.275Z,15.30
2023-05-22T01:01:32.048Z,15.20
2023-05-22T01:06:33.625Z,15.20
2023-05-22T01:11:35.353Z,15.10
2023-05-22T01:16:37.182Z,15.00
2023-05-22T01:21:39.086Z,14.90
2023-05-22T01:26:40.671Z,14.90
2023-05-22T01:31:42.368Z,14.80
2023-05-22T01:36:44.009Z,14.80
2023-05-22T01:41:45.660Z,14.70
2023-05-22T01:46:47.421Z,14.60
2023-05-22T01:51:49.008Z,14.50
2023-05-22T01:56:50.834Z,14.50
2023-05-22T02:01:52.558Z,14.40
2023-05-22T02:06:54.154Z,14.40
2023-05-22T02:11:55.867Z,14.30
2023-05-22T02:16:57.623Z,14.20
2023-05-22T02:21:59.154Z,14.10
2023-05-22T02:27:00.715Z,14.10
2023-05-22T02:32:02.393Z,14.00
2023-05-22T02:37:04.355Z,13.90
2023-05-22T02:42:06.092Z,13.80
2023-05-22T02:47:07.725Z,13.70
2023-05-22T02:52:09.186Z,13.60
2023-05-22T02:57:10.844Z,13.50
2023-05-22T03:02:12.526Z,13.40
2023-05-22T03:07:14.069Z,13.30
2023-05-22T03:12:15.739Z,13.30
2023-05-22T03:17:17.405Z,13.30
2023-05-22T03:22:19.087Z,13.30
2023-05-22T03:27:20.557Z,13.40
2023-05-22T03:32:22.207Z,13.40
2023-05-22T03:37:23.793Z,13.40
2023-05-22T03:42:25.495Z,13.30
2023-05-22T03:47:27.193Z,13.30
2023-05-22T03:52:28.817Z,13.30
2023-05-22T03:57:30.302Z,13.30
2023-05-22T04:02:31.965Z,13.30
2023-05-22T04:07:33.459Z,13.40
2023-05-22T04:12:35.011Z,13.50
2023-05-22T04:17:36.615Z,13.60
2023-05-22T04:22:38.402Z,13.70
2023-05-22T04:27:39.980Z,13.80
2023-05-22T04:32:41.518Z,13.90
2023-05-22T04:37:43.445Z,14.00
2023-05-22T04:42:45.021Z,14.10
2023-05-22T04:47:46.744Z,14.30
2023-05-22T04:52:48.364Z,14.60
2023-05-22T04:57:50.030Z,15.20
2023-05-22T05:02:51.641Z,15.90
2023-05-22T05:07:53.296Z,16.90
2023-05-22T05:12:54.932Z,17.90
2023-05-22T05:17:56.673Z,18.60
2023-05-22T05:22:58.272Z,19.40
2023-05-22T05:27:59.761Z,19.80
2023-05-22T05:33:01.417Z,20.10
2023-05-22T05:38:03.102Z,20.50
2023-05-22T05:43:05.867Z,20.90
2023-05-22T05:48:08.316Z,21.50
2023-05-22T05:53:09.945Z,21.70
2023-05-22T05:58:11.472Z,21.70
2023-05-22T06:03:13.290Z,22.00
2023-05-22T06:08:14.952Z,22.50
2023-05-22T06:13:16.555Z,22.70
2023-05-22T06:18:18.279Z,22.60
2023-05-22T06:23:19.882Z,22.30
2023-05-22T06:28:21.530Z,22.70
2023-05-22T06:33:23.122Z,23.30
2023-05-22T06:38:25.337Z,24.30
2023-05-22T06:43:27.560Z,24.90
2023-05-22T06:48:29.780Z,25.50
2023-05-22T06:53:32.485Z,25.90
2023-05-22T06:58:34.292Z,26.30
2023-05-22T07:03:36.145Z,26.60
2023-05-22T07:08:37.679Z,26.90
2023-05-22T07:13:39.225Z,27.40
2023-05-22T07:18:40.824Z,27.70
2023-05-22T07:23:42.375Z,27.70
2023-05-22T07:28:44.304Z,27.60
2023-05-22T07:33:47.112Z,27.80
2023-05-22T07:38:48.870Z,28.00
2023-05-22T07:44:03.578Z,28.50
2023-05-22T07:49:05.269Z,28.90
2023-05-22T07:54:06.738Z,29.40
2023-05-22T07:59:08.285Z,29.60
2023-05-22T08:04:10.082Z,29.20
2023-05-22T08:09:11.750Z,28.60
2023-05-22T08:14:13.348Z,28.80
2023-05-22T08:19:15.016Z,29.30
2023-05-22T08:24:16.648Z,29.60
2023-05-22T08:29:18.250Z,29.70
2023-05-22T08:34:19.893Z,30.30
2023-05-22T08:39:21.782Z,30.40
2023-05-22T08:44:23.351Z,30.50
2023-05-22T08:49:24.918Z,30.30
2023-05-22T08:54:26.610Z,30.50
2023-05-22T08:59:28.259Z,30.40
2023-05-22T09:04:29.915Z,30.70
2023-05-22T09:09:31.500Z,30.30
2023-05-22T09:14:33.091Z,30.40
2023-05-22T09:19:34.780Z,30.10
2023-05-22T09:24:36.449Z,29.80
2023-05-22T09:29:38.004Z,29.90
2023-05-22T09:34:39.608Z,29.60
2023-05-22T09:39:41.123Z,29.20
2023-05-22T09:44:42.722Z,28.90
2023-05-22T09:49:44.225Z,28.90
2023-05-22T09:54:45.850Z,28.60
2023-05-22T09:59:47.401Z,28.30
2023-05-22T10:04:49.150Z,28.10
2023-05-22T10:09:50.854Z,28.20
2023-05-22T10:14:52.360Z,28.10
2023-05-22T10:19:53.861Z,28.60
2023-05-22T10:24:55.413Z,28.50
2023-05-22T10:29:57.153Z,28.30
2023-05-22T10:35:01.956Z,28.30
2023-05-22T10:40:06.916Z,27.80
2023-05-22T10:45:09.321Z,27.60
2023-05-22T10:50:10.997Z,27.90
2023-05-22T10:55:12.643Z,28.30
2023-05-22T11:00:14.138Z,28.20
2023-05-22T11:05:34.731Z,28.00
2023-05-22T11:10:37.012Z,28.10
2023-05-22T11:15:38.497Z,28.10
2023-05-22T11:20:40.650Z,28.40
2023-05-22T11:25:42.577Z,28.30
2023-05-22T11:30:44.220Z,28.00
2023-05-22T11:35:45.870Z,27.90
2023-05-22T11:40:47.595Z,28.00
2023-05-22T11:45:49.164Z,28.10
2023-05-22T11:50:50.673Z,28.30
2023-05-22T11:55:52.344Z,28.20
2023-05-22T12:00:54.029Z,27.70
2023-05-22T12:05:55.725Z,27.10
2023-05-22T12:10:57.249Z,27.00
2023-05-22T12:15:59.051Z,27.00
2023-05-22T12:21:00.632Z,27.00
2023-05-22T12:26:02.362Z,27.00
2023-05-22T12:31:04.000Z,26.90
2023-05-22T12:36:05.624Z,26.60
2023-05-22T12:41:07.173Z,26.60
2023-05-22T12:46:08.794Z,26.90
2023-05-22T12:51:10.345Z,27.10
2023-05-22T12:56:12.012Z,27.20
2023-05-22T13:01:13.722Z,27.30
2023-05-22T13:06:15.248Z,27.20
2023-05-22T13:11:16.807Z,27.50
2023-05-22T13:16:18.417Z,27.50
2023-05-22T13:21:20.170Z,27.40
2023-05-22T13:26:21.697Z,27.10
2023-05-22T13:31:23.421Z,27.00
2023-05-22T13:36:25.063Z,27.10
2023-05-22T13:41:26.634Z,27.00
2023-05-22T13:46:28.556Z,26.90
2023-05-22T13:51:30.075Z,26.90
2023-05-22T13:56:31.799Z,26.40
2023-05-22T14:01:33.394Z,26.20
2023-05-22T14:06:35.081Z,26.00
2023-05-22T14:11:36.975Z,25.80
2023-05-22T14:16:38.526Z,25.80
2023-05-22T14:21:40.116Z,25.90
2023-05-22T14:26:41.760Z,25.80
2023-05-22T14:31:43.432Z,26.00
2023-05-22T14:36:45.220Z,26.00
2023-05-22T14:41:46.808Z,26.00
2023-05-22T14:46:48.489Z,26.00
2023-05-22T14:51:50.135Z,26.10
2023-05-22T14:56:51.802Z,26.30
2023-05-22T15:01:53.688Z,26.30
2023-05-22T15:06:55.261Z,26.20
2023-05-22T15:11:56.936Z,26.30
2023-05-22T15:16:58.485Z,26.50
2023-05-22T15:22:08.832Z,26.30
2023-05-22T15:27:20.383Z,26.40
2023-05-22T15:32:21.977Z,26.90
2023-05-22T15:37:24.131Z,27.10
2023-05-22T15:42:25.689Z,27.20
2023-05-22T15:47:27.321Z,27.50
2023-05-22T15:52:28.929Z,28.00
2023-05-22T15:57:30.591Z,28.40
2023-05-22T16:02:32.348Z,28.20
2023-05-22T16:07:33.950Z,28.00
2023-05-22T16:12:35.609Z,27.90
2023-05-22T16:17:37.371Z,27.80
2023-05-22T16:22:47.939Z,28.00
2023-05-22T16:27:51.155Z,28.00
2023-05-22T16:32:53.074Z,27.80
2023-05-22T16:37:54.735Z,27.40
2023-05-22T16:42:56.402Z,27.10
2023-05-22T16:47:58.183Z,27.20
2023-05-22T16:52:59.850Z,27.00
2023-05-22T16:58:01.632Z,26.60
2023-05-22T17:03:03.584Z,26.10
2023-05-22T17:08:05.486Z,25.60
2023-05-22T17:13:07.152Z,25.30
2023-05-22T17:18:08.761Z,25.00
2023-05-22T17:23:10.372Z,24.70
2023-05-22T17:28:11.862Z,24.40
2023-05-22T17:33:13.480Z,24.20
2023-05-22T17:38:15.100Z,24.00
2023-05-22T17:43:16.762Z,23.70
2023-05-22T17:48:18.535Z,23.40
2023-05-22T17:53:20.089Z,23.20
2023-05-22T17:58:21.651Z,23.00
2023-05-22T18:03:23.281Z,22.70
2023-05-22T18:08:24.919Z,22.50
2023-05-22T18:13:26.398Z,22.40
2023-05-22T18:18:27.962Z,22.20
2023-05-22T18:23:29.518Z,22.00
2023-05-22T18:28:31.170Z,21.80
2023-05-22T18:33:32.833Z,21.60
2023-05-22T18:38:34.555Z,21.40
2023-05-22T18:43:36.122Z,21.30
2023-05-22T18:48:37.637Z,21.10
2023-05-22T18:53:39.212Z,21.00
2023-05-22T18:58:40.913Z,20.80
2023-05-22T19:03:42.574Z,20.70
2023-05-22T19:08:44.256Z,20.50
2023-05-22T19:13:45.803Z,20.40
2023-05-22T19:18:47.412Z,20.40
2023-05-22T19:23:49.053Z,20.30
2023-05-22T19:28:50.631Z,20.10
2023-05-22T19:33:52.117Z,20.00
2023-05-22T19:38:53.927Z,19.90
2023-05-22T19:43:55.618Z,19.70
2023-05-22T19:49:15.819Z,19.60
2023-05-22T19:54:35.522Z,19.60
2023-05-22T19:59:55.787Z,19.40
2023-05-22T20:05:15.864Z,19.30
2023-05-22T20:10:36.052Z,19.20
2023-05-22T20:15:56.294Z,19.10
2023-05-22T20:20:58.054Z,19.00
2023-05-22T20:25:59.545Z,18.90
2023-05-22T20:31:01.110Z,18.90
2023-05-22T20:36:02.657Z,18.70
2023-05-22T20:41:04.321Z,18.60
2023-05-22T20:46:06.072Z,18.50
2023-05-22T20:51:07.621Z,18.40
2023-05-22T20:56:09.323Z,18.30
2023-05-22T21:01:11.223Z,18.30
2023-05-22T21:06:12.985Z,18.20
2023-05-22T21:11:14.622Z,18.10
2023-05-22T21:16:16.312Z,18.00
2023-05-22T21:21:18.082Z,17.90
2023-05-22T21:26:19.657Z,17.90
2023-05-22T21:31:21.384Z,17.80
2023-05-22T21:36:23.034Z,17.70
2023-05-22T21:41:24.690Z,17.60
2023-05-22T21:46:26.312Z,17.50
2023-05-22T21:51:27.993Z,17.50
2023-05-22T21:56:48.309Z,17.40
2023-05-22T22:02:08.545Z,17.40
2023-05-22T22:07:28.648Z,17.30
2023-05-22T22:12:48.796Z,17.20
2023-05-22T22:18:08.910Z,17.00
2023-05-22T22:23:29.007Z,17.00
2023-05-22T22:28:49.166Z,17.00
2023-05-22T22:34:09.369Z,16.90
2023-05-22T22:39:40.608Z,16.80
2023-05-22T22:45:00.911Z,16.70
2023-05-22T22:50:20.929Z,16.60
2023-05-22T22:55:41.287Z,16.50
2023-05-22T23:01:01.665Z,16.30
2023-05-22T23:06:21.865Z,16.20
2023-05-22T23:11:42.005Z,16.00
2023-05-22T23:17:02.306Z,15.90
2023-05-22T23:22:22.416Z,15.70
2023-05-22T23:27:42.579Z,15.60
2023-05-22T23:33:02.726Z,15.40
2023-05-22T23:38:22.793Z,15.40
2023-05-22T23:43:42.920Z,15.30
2023-05-22T23:49:05.081Z,15.10
2023-05-22T23:54:25.060Z,15.00
2023-05-22T23:59:45.351Z,14.90
